Date,TemperatureHighF,TemperatureAvgF,TemperatureLowF,DewpointHighF,DewpointAvgF,DewpointLowF,HumidityHigh,HumidityAvg,HumidityLow,PressureMaxIn,PressureMinIn,WindSpeedMaxMPH,WindSpeedAvgMPH,GustSpeedMaxMPH,PrecipitationSumIn
2013-2-2,30,23,15,18,9,4,80,59,33,30.16,29.96,3,0,12,0.00
2013-2-3,31,25,17,19,16,13,88,71,51,29.96,29.65,0,0,5,0.02
2013-2-4,30,25,19,16,10,3,81,55,33,29.84,29.66,2,0,12,0.00
2013-2-5,28,25,22,23,17,11,88,70,59,29.90,29.81,0,0,3,0.00
2013-2-6,38,31,24,25,19,0,90,64,31,30.23,29.81,1,0,11,0.02
2013-2-7,33,25,16,15,8,2,73,50,32,30.41,30.23,1,0,5,0.00
2013-2-8,32,27,21,29,22,11,93,81,51,30.30,29.51,25,1,25,0.00
2013-2-9,25,22,17,22,18,3,94,85,51,30.17,29.58,12,3,14,0.01
2013-2-10,42,21,0,18,6,-6,83,56,24,30.34,30.17,2,0,5,0.25
2013-2-11,43,32,15,42,30,11,99,92,80,30.24,29.52,2,0,8,0.45
2013-2-12,48,38,32,39,29,25,97,72,47,29.82,29.55,6,0,16,0.03
2013-2-13,46,35,22,29,24,19,88,66,39,29.80,29.60,2,0,9,0.00
2013-2-14,47,34,23,31,25,20,95,72,39,29.88,29.61,2,0,7,0.03
2013-2-15,51,37,25,34,30,23,95,77,50,29.88,29.80,3,0,12,0.00
2013-2-16,41,34,-10,32,24,-24,94,70,42,29.85,29.61,2,0,7,0.07
2013-2-17,29,24,16,22,4,-2,75,43,27,29.75,29.45,5,1,18,0.00
2013-2-18,35,24,15,13,3,-2,65,42,25,30.07,29.76,6,1,15,0.00
2013-2-19,45,34,20,38,26,7,97,74,38,30.07,29.49,2,0,13,0.25
2013-2-20,38,31,23,34,16,7,85,55,37,29.78,29.50,6,1,17,0.01
2013-2-21,34,25,18,14,12,10,79,59,42,30.16,29.77,7,1,20,0.00
2013-2-22,40,31,23,27,20,13,79,64,46,30.30,30.16,1,0,5,0.00
2013-2-23,38,34,32,36,31,27,96,89,80,30.19,29.74,0,0,2,0.15
2013-2-24,42,36,34,37,32,26,98,86,67,29.80,29.60,1,0,7,0.07
2013-2-25,49,37,30,29,26,24,88,66,44,30.13,29.80,1,0,5,0.01
2013-2-26,43,35,28,31,27,25,92,74,52,30.21,29.96,1,0,6,0.04
2013-2-27,42,38,33,42,37,31,99,98,88,29.94,29.46,0,0,3,1.41
2013-2-28,46,38,34,44,36,33,99,92,75,29.51,29.42,1,0,7,0.00
2013-3-1,47,40,35,34,30,26,86,69,47,29.62,29.44,3,0,10,0.00
2013-3-2,39,35,31,28,25,24,75,67,56,29.63,29.55,3,0,7,0.00
2013-3-3,35,31,28,24,21,18,74,67,55,29.59,29.52,3,0,142,0.00
2013-3-4,40,32,27,22,20,18,73,61,47,29.72,29.58,3,1,14,0.00
2013-3-5,48,38,30,30,25,21,74,60,42,29.92,29.71,6,0,14,0.00
2013-3-6,41,38,36,36,31,28,85,76,64,29.91,29.83,3,1,13,0.01
2013-3-7,36,34,32,32,30,28,95,87,73,29.94,29.84,3,1,10,0.11
2013-3-8,40,35,31,35,30,24,96,84,54,30.05,29.83,2,0,12,0.42
2013-3-9,58,43,30,30,23,12,84,49,17,30.23,30.04,2,0,6,0.14
2013-3-10,51,37,24,34,29,21,94,73,48,30.30,30.19,2,0,7,0.00
2013-3-11,52,43,36,42,38,32,94,81,66,30.21,30.00,3,0,12,0.00
2013-3-12,53,48,41,52,47,37,99,96,87,30.00,29.58,2,0,13,1.17
2013-3-13,49,41,32,36,29,24,91,65,38,29.74,29.65,3,0,10,0.00
2013-3-14,36,32,28,28,17,10,82,56,38,29.78,29.70,5,1,14,0.00
2013-3-15,42,33,26,30,18,11,84,55,32,29.81,29.59,10,1,16,0.00
2013-3-16,40,35,29,26,19,11,81,53,31,29.78,29.62,3,0,8,0.00
2013-3-17,37,34,24,20,9,2,57,36,25,30.20,29.78,142,2,142,0.00
2013-3-18,37,29,20,27,10,1,91,48,25,30.34,30.02,12,1,12,0.00
2013-3-19,37,33,29,35,31,27,96,93,89,30.02,29.54,7,1,7,0.34
2013-3-20,41,33,22,30,20,15,90,64,36,29.72,29.64,18,3,18,0.23
2013-3-21,40,32,28,25,19,9,84,60,35,29.72,29.50,142,1,142,0.04
2013-3-22,40,33,24,23,17,10,77,53,40,29.71,29.57,17,2,17,0.00
2013-3-23,45,36,27,26,20,15,81,55,30,29.77,29.62,16,3,16,0.00
2013-3-24,48,37,25,27,22,18,86,57,38,29.79,29.60,10,1,10,0.00
2013-3-25,46,39,32,29,26,-24,72,59,45,29.64,29.35,153,2,153,0.00
2013-3-26,50,41,34,30,25,19,69,54,32,29.72,29.44,10,2,10,0.00
2013-3-27,55,44,35,28,23,17,57,45,27,29.80,29.69,12,4,12,0.00
2013-3-28,50,44,38,35,31,26,80,61,47,29.95,29.79,7,2,7,0.00
2013-3-29,56,47,40,33,29,26,65,51,33,29.98,29.89,10,2,10,0.00
2013-3-30,58,46,33,31,26,18,81,48,24,30.01,29.92,13,2,13,0.00
2013-3-31,56,43,27,41,29,21,90,62,29,30.01,29.54,14,3,14,0.20
2013-4-1,62,46,35,47,37,14,97,73,41,29.75,29.44,17,3,17,0.03
2013-4-2,41,34,25,22,14,6,80,47,24,29.91,29.75,18,3,18,0.00
2013-4-3,46,36,24,18,14,10,74,42,25,30.14,29.90,17,3,17,0.00
2013-4-4,55,40,25,31,20,13,76,47,23,30.25,29.96,12,3,12,0.00
2013-4-5,63,47,38,32,25,16,78,46,17,29.96,29.55,10,2,10,0.00
2013-4-6,51,40,31,24,14,5,64,37,16,30.20,29.84,12,2,12,0.00
2013-4-7,61,43,29,43,32,20,87,65,37,30.20,29.89,18,4,18,29.66
2013-4-8,71,54,37,46,39,34,97,62,27,29.96,29.86,12,1,12,0.00
2013-4-9,76,61,48,52,45,40,94,59,29,29.91,29.75,20,2,20,0.00
2013-4-10,68,56,49,52,49,41,96,78,56,29.85,29.71,7,0,7,0.00
2013-4-11,59,52,44,50,42,25,97,72,33,30.00,29.69,4,0,4,0.00
2013-4-12,44,40,37,39,36,32,96,87,65,30.00,29.65,5,0,5,0.00
2013-4-13,54,45,36,41,36,33,96,73,44,29.82,29.64,7,0,7,0.00
2013-4-14,52,45,37,38,31,24,89,61,36,30.11,29.82,12,2,12,0.00
2013-4-15,58,45,32,36,30,21,87,58,34,30.28,30.11,8,1,8,0.00
2013-4-16,64,50,35,52,43,30,93,77,55,30.28,29.98,12,3,12,0.03
2013-4-17,69,58,50,51,39,30,86,51,26,30.19,29.98,6,1,6,0.00
2013-4-18,60,53,50,45,34,29,77,50,32,30.27,30.02,14,2,14,0.00
2013-4-19,69,60,52,65,57,45,99,90,74,30.02,29.54,14,4,14,0.83
2013-4-20,63,52,42,61,38,25,95,62,30,30.17,29.52,20,2,20,29.94
2013-4-21,56,44,33,27,23,16,59,44,26,30.53,30.17,10,1,10,29.66
2013-4-22,59,46,32,36,29,23,88,54,27,30.59,30.42,12,2,12,29.83
2013-4-23,46,42,38,39,35,29,85,76,63,30.43,29.98,6,1,6,172.80
2013-4-24,72,54,42,58,44,38,88,72,38,29.98,29.71,14,2,14,29.73
2013-4-25,63,54,40,51,36,25,94,56,24,30.16,29.74,12,1,12,29.67
2013-4-26,67,52,33,37,30,26,90,49,23,30.30,30.16,9,1,9,84.61
2013-4-27,67,54,35,41,34,28,82,49,27,30.30,30.16,8,1,8,29.81
2013-4-28,66,49,38,45,39,34,93,72,35,30.21,30.16,7,1,7,29.89
2013-9-7,44,44,44,43,42,42,93,93,93,30.09,30.08,0,0,0,0.00
2013-9-9,71,63,44,56,49,42,98,63,44,30.14,30.04,1,0,5,200.62
2013-9-10,75,75,74,72,72,72,91,91,90,29.94,29.94,3,1,8,221.66
2013-9-13,76,71,66,69,64,61,100,78,66,29.67,29.50,5,0,5,0.27